createdAt,value
2022-10-31T00:00:21.872Z,0.00
2022-10-31T00:05:28.278Z,0.00
2022-10-31T00:10:17.230Z,0.00
2022-10-31T00:15:23.357Z,0.00
2022-10-31T00:20:29.466Z,0.00
2022-10-31T00:25:18.336Z,0.00
2022-10-31T00:30:24.379Z,0.00
2022-10-31T00:35:30.462Z,0.00
2022-10-31T00:40:18.922Z,0.00
2022-10-31T00:45:24.944Z,0.00
2022-10-31T00:50:31.113Z,0.00
2022-10-31T00:55:20.040Z,0.00
2022-10-31T01:00:26.106Z,0.00
2022-10-31T01:05:32.507Z,0.00
2022-10-31T01:10:21.492Z,0.00
2022-10-31T01:15:27.730Z,0.00
2022-10-31T01:20:16.828Z,0.00
2022-10-31T01:25:22.679Z,0.00
2022-10-31T01:30:28.716Z,0.00
2022-10-31T01:35:17.771Z,0.00
2022-10-31T01:40:23.298Z,0.00
2022-10-31T01:45:29.176Z,0.00
2022-10-31T01:50:18.231Z,0.00
2022-10-31T01:55:26.386Z,0.00
2022-10-31T02:00:30.382Z,0.00
2022-10-31T02:05:18.656Z,0.00
2022-10-31T02:10:24.839Z,0.00
2022-10-31T02:15:30.902Z,0.00
2022-10-31T02:20:19.905Z,0.00
2022-10-31T02:25:25.987Z,0.00
2022-10-31T02:30:31.985Z,0.00
2022-10-31T02:35:21.052Z,0.00
2022-10-31T02:40:27.304Z,0.00
2022-10-31T02:45:16.365Z,0.00
2022-10-31T02:50:24.572Z,0.00
2022-10-31T02:55:28.482Z,0.00
2022-10-31T03:00:17.578Z,0.00
2022-10-31T03:05:22.824Z,0.00
2022-10-31T03:10:29.028Z,0.00
2022-10-31T03:15:17.930Z,0.00
2022-10-31T03:20:24.054Z,0.00
2022-10-31T03:25:30.089Z,0.00
2022-10-31T03:30:19.126Z,0.00
2022-10-31T03:35:25.193Z,0.00
2022-10-31T03:40:18.056Z,0.00
2022-10-31T03:45:19.684Z,0.00
2022-10-31T03:50:25.750Z,0.00
2022-10-31T03:55:31.822Z,0.00
2022-10-31T04:00:21.134Z,0.00
2022-10-31T04:05:27.251Z,0.00
2022-10-31T04:10:16.358Z,0.00
2022-10-31T04:15:22.502Z,0.00
2022-10-31T04:20:28.396Z,0.00
2022-10-31T04:25:18.199Z,0.00
2022-10-31T04:30:23.663Z,0.00
2022-10-31T04:35:29.543Z,0.00
2022-10-31T04:40:17.943Z,0.00
2022-10-31T04:45:23.954Z,0.00
2022-10-31T04:50:29.998Z,0.00
2022-10-31T04:55:19.175Z,0.00
2022-10-31T05:00:25.155Z,0.00
2022-10-31T05:05:31.478Z,0.00
2022-10-31T05:10:20.454Z,0.00
2022-10-31T05:15:26.619Z,0.00
2022-10-31T05:20:32.615Z,0.00
2022-10-31T05:25:21.812Z,0.00
2022-10-31T05:30:27.758Z,0.00
2022-10-31T05:35:16.741Z,0.00
2022-10-31T05:40:21.987Z,0.00
2022-10-31T05:45:27.987Z,0.00
2022-10-31T05:50:17.271Z,0.02
2022-10-31T05:55:23.219Z,0.53
2022-10-31T06:00:29.171Z,2.10
2022-10-31T06:05:17.495Z,4.04
2022-10-31T06:10:23.562Z,6.40
2022-10-31T06:15:29.888Z,9.13
2022-10-31T06:20:19.015Z,12.10
2022-10-31T06:25:24.708Z,15.34
2022-10-31T06:30:31.018Z,18.90
2022-10-31T06:35:19.842Z,21.98
2022-10-31T06:40:26.222Z,25.62
2022-10-31T06:45:32.372Z,28.66
2022-10-31T06:50:21.513Z,31.16
2022-10-31T06:55:27.435Z,33.65
2022-10-31T07:00:16.542Z,35.55
2022-10-31T07:05:21.815Z,36.17
2022-10-31T07:10:27.875Z,38.43
2022-10-31T07:15:17.045Z,40.18
2022-10-31T07:20:23.038Z,43.11
2022-10-31T07:25:29.028Z,47.94
2022-10-31T07:30:18.072Z,52.60
2022-10-31T07:35:25.034Z,55.59
2022-10-31T07:40:29.664Z,59.69
2022-10-31T07:45:18.816Z,62.91
2022-10-31T07:50:24.840Z,65.14
2022-10-31T07:55:30.781Z,68.17
2022-10-31T08:00:19.874Z,70.67
2022-10-31T08:05:26.218Z,73.69
2022-10-31T08:10:32.370Z,77.86
2022-10-31T08:15:21.226Z,80.75
2022-10-31T08:20:27.534Z,83.64
2022-10-31T08:25:16.357Z,87.24
2022-10-31T08:30:22.453Z,90.77
2022-10-31T08:35:28.502Z,94.16
2022-10-31T08:40:17.120Z,97.82
2022-10-31T08:45:23.151Z,102.19
2022-10-31T08:50:29.060Z,107.07
2022-10-31T08:55:18.054Z,209.72
2022-10-31T09:00:24.208Z,398.59
2022-10-31T09:05:30.353Z,272.08
2022-10-31T09:10:19.461Z,266.07
2022-10-31T09:15:25.504Z,255.87
2022-10-31T09:20:31.757Z,255.01
2022-10-31T09:25:20.470Z,247.80
2022-10-31T09:30:26.562Z,239.76
2022-10-31T09:35:32.719Z,230.84
2022-10-31T09:40:21.242Z,241.83
2022-10-31T09:45:27.454Z,251.48
2022-10-31T09:50:16.481Z,267.90
2022-10-31T09:55:22.434Z,279.51
2022-10-31T10:00:28.549Z,278.62
2022-10-31T10:05:16.755Z,275.18
2022-10-31T10:10:23.024Z,273.87
2022-10-31T10:15:29.081Z,285.96
2022-10-31T10:20:20.663Z,291.30
2022-10-31T10:25:24.073Z,284.38
2022-10-31T10:30:30.056Z,288.85
2022-10-31T10:35:19.302Z,303.61
2022-10-31T10:40:25.249Z,285.02
2022-10-31T10:45:32.144Z,280.09
2022-10-31T10:50:20.327Z,289.26
2022-10-31T10:55:26.529Z,293.89
2022-10-31T11:00:32.526Z,262.86
2022-10-31T11:05:20.799Z,271.45
2022-10-31T11:10:26.828Z,277.62
2022-10-31T11:15:15.856Z,284.38
2022-10-31T11:20:22.162Z,285.33
2022-10-31T11:25:28.225Z,284.29
2022-10-31T11:30:17.138Z,293.42
2022-10-31T11:35:23.238Z,293.74
2022-10-31T11:40:28.788Z,296.98
2022-10-31T11:45:17.830Z,285.55
2022-10-31T11:50:23.779Z,275.89
2022-10-31T11:55:29.815Z,279.01
2022-10-31T12:00:19.213Z,271.50
2022-10-31T12:05:25.248Z,243.53
2022-10-31T12:10:31.407Z,234.50
2022-10-31T12:15:20.464Z,219.89
2022-10-31T12:20:26.385Z,207.29
2022-10-31T12:25:32.719Z,216.27
2022-10-31T12:30:21.605Z,205.31
2022-10-31T12:35:27.645Z,167.00
2022-10-31T12:40:16.603Z,171.42
2022-10-31T12:45:22.463Z,165.20
2022-10-31T12:50:28.628Z,174.33
2022-10-31T12:55:17.441Z,191.18
2022-10-31T13:00:26.554Z,192.61
2022-10-31T13:05:28.889Z,184.51
2022-10-31T13:10:17.911Z,172.75
2022-10-31T13:15:23.990Z,158.85
2022-10-31T13:20:30.130Z,134.12
2022-10-31T13:25:19.053Z,128.88
2022-10-31T13:30:25.150Z,115.50
2022-10-31T13:35:31.351Z,116.52
2022-10-31T13:40:20.363Z,109.83
2022-10-31T13:45:25.671Z,105.70
2022-10-31T13:50:31.594Z,101.30
2022-10-31T13:55:20.617Z,96.36
2022-10-31T14:00:27.031Z,92.08
2022-10-31T14:05:16.099Z,85.90
2022-10-31T14:10:22.242Z,78.12
2022-10-31T14:15:28.394Z,70.94
2022-10-31T14:20:17.394Z,67.05
2022-10-31T14:25:23.354Z,63.68
2022-10-31T14:30:29.564Z,56.88
2022-10-31T14:35:21.353Z,50.64
2022-10-31T14:40:24.572Z,47.02
2022-10-31T14:45:30.038Z,43.43
2022-10-31T14:50:18.938Z,39.09
2022-10-31T14:55:25.025Z,34.71
2022-10-31T15:00:31.096Z,30.43
2022-10-31T15:05:20.603Z,26.26
2022-10-31T15:10:26.430Z,21.63
2022-10-31T15:15:32.498Z,17.46
2022-10-31T15:20:21.760Z,14.04
2022-10-31T15:25:27.837Z,10.85
2022-10-31T15:30:16.872Z,7.48
2022-10-31T15:35:22.954Z,4.96
2022-10-31T15:40:28.252Z,3.56
2022-10-31T15:45:17.283Z,2.17
2022-10-31T15:50:23.624Z,0.24
2022-10-31T15:55:29.543Z,0.00
2022-10-31T16:00:18.466Z,0.00
2022-10-31T16:05:23.802Z,0.00
2022-10-31T16:10:30.025Z,0.00
2022-10-31T16:15:18.935Z,0.00
2022-10-31T16:20:24.972Z,0.00
2022-10-31T16:25:31.017Z,0.00
2022-10-31T16:30:20.042Z,0.00
2022-10-31T16:35:26.207Z,0.00
2022-10-31T16:40:31.464Z,0.00
2022-10-31T16:45:20.673Z,0.00
2022-10-31T16:50:26.644Z,0.00
2022-10-31T16:55:15.633Z,0.00
2022-10-31T17:00:21.961Z,0.00
2022-10-31T17:05:28.626Z,0.00
2022-10-31T17:10:17.610Z,0.00
2022-10-31T17:15:23.693Z,0.00
2022-10-31T17:20:29.953Z,0.00
2022-10-31T17:25:18.759Z,0.00
2022-10-31T17:30:24.863Z,0.00
2022-10-31T17:35:31.198Z,0.00
2022-10-31T17:40:20.997Z,0.00
2022-10-31T17:45:25.945Z,0.00
2022-10-31T17:50:32.077Z,0.00
2022-10-31T17:55:20.985Z,0.00
2022-10-31T18:00:27.364Z,0.00
2022-10-31T18:05:16.372Z,0.00
2022-10-31T18:10:22.435Z,0.00
2022-10-31T18:15:28.466Z,0.00
2022-10-31T18:20:17.830Z,0.00
2022-10-31T18:25:23.584Z,0.00
2022-10-31T18:30:29.832Z,0.00
2022-10-31T18:35:18.914Z,0.00
2022-10-31T18:40:25.039Z,0.00
2022-10-31T18:45:41.576Z,0.00
2022-10-31T18:50:19.198Z,0.00
2022-10-31T18:55:25.395Z,0.00
2022-10-31T19:00:31.300Z,0.00
2022-10-31T19:05:19.626Z,0.00
2022-10-31T19:10:25.839Z,0.00
2022-10-31T19:15:31.750Z,0.00
2022-10-31T19:20:20.862Z,0.00
2022-10-31T19:25:26.871Z,0.00
2022-10-31T19:30:16.069Z,0.00
2022-10-31T19:35:22.000Z,0.00
2022-10-31T19:40:28.241Z,0.00
2022-10-31T19:45:17.535Z,0.00
2022-10-31T19:50:23.683Z,0.00
2022-10-31T19:55:29.610Z,0.00
2022-10-31T20:00:18.660Z,0.00
2022-10-31T20:05:24.611Z,0.00
2022-10-31T20:10:30.436Z,0.00
2022-10-31T20:15:19.511Z,0.00
2022-10-31T20:20:25.628Z,0.00
2022-10-31T20:25:31.812Z,0.00
2022-10-31T20:30:20.723Z,0.00
2022-10-31T20:35:26.758Z,0.00
2022-10-31T20:40:33.002Z,0.00
2022-10-31T20:45:21.756Z,0.00
2022-10-31T20:50:28.777Z,0.00
2022-10-31T20:55:16.849Z,0.00
2022-10-31T21:00:23.161Z,0.00
2022-10-31T21:05:28.821Z,0.00
2022-10-31T21:10:17.867Z,0.00
2022-10-31T21:15:23.918Z,0.00
2022-10-31T21:20:30.037Z,0.00
2022-10-31T21:25:19.023Z,0.00
2022-10-31T21:30:25.264Z,0.00
2022-10-31T21:35:31.317Z,0.00
2022-10-31T21:40:20.501Z,0.00
2022-10-31T21:45:26.267Z,0.00
2022-10-31T21:50:32.342Z,0.00
2022-10-31T21:55:21.296Z,0.00
2022-10-31T22:00:27.513Z,0.00
2022-10-31T22:05:15.685Z,0.00
2022-10-31T22:10:21.767Z,0.00
2022-10-31T22:15:27.838Z,0.00
2022-10-31T22:20:16.913Z,0.00
2022-10-31T22:25:22.924Z,0.00
2022-10-31T22:30:29.184Z,0.00
2022-10-31T22:35:18.024Z,0.00
2022-10-31T22:40:24.116Z,0.00
2022-10-31T22:45:29.618Z,0.00
2022-10-31T22:50:18.687Z,0.00
2022-10-31T22:55:24.777Z,0.00
2022-10-31T23:00:30.915Z,0.00
2022-10-31T23:05:20.367Z,0.00
2022-10-31T23:10:26.203Z,0.00
2022-10-31T23:15:32.269Z,0.00
2022-10-31T23:20:21.597Z,0.00
2022-10-31T23:25:27.369Z,0.00
2022-10-31T23:30:16.388Z,0.00
2022-10-31T23:35:22.491Z,0.00
2022-10-31T23:40:28.503Z,0.00
2022-10-31T23:45:16.980Z,0.00
2022-10-31T23:50:23.031Z,0.00
2022-10-31T23:55:29.122Z,0.00
